Time;durP1;ratioP1;P1;durP2;ratioP2;P2;SDS_P1;SDS_P2;PMS_P1;PMS_P2;Temp;Humidity;BMP_temperature;BMP_pressure;BME280_temperature;BME280_humidity;BME280_pressure;Samples;Min_cycle;Max_cycle;Signal;HPM_P1;HPM_P2
2022/11/05 00:10:25;;;;;;;3.28;2.97;;;6.80;99.90;;;;;;4950317;29;20044;-77
2022/11/05 00:18:22;;;;;;;6.15;3.58;;;6.50;99.90;;;;;;4949669;29;20043;-77
2022/11/05 00:20:47;;;;;;;5.38;4.20;;;6.40;99.90;;;;;;4950230;29;20031;-77
2022/11/05 00:26:01;;;;;;;5.82;4.90;;;6.20;99.90;;;;;;4950048;29;20070;-77
2022/11/05 00:28:28;;;;;;;7.90;5.05;;;6.20;99.90;;;;;;4949793;29;20477;-76
2022/11/05 00:31:03;;;;;;;5.50;4.95;;;6.10;99.90;;;;;;4932484;29;20051;-77
2022/11/05 00:33:29;;;;;;;6.25;5.65;;;6.10;99.90;;;;;;4948622;29;20032;-76
2022/11/05 00:35:55;;;;;;;7.70;6.38;;;6.20;99.90;;;;;;4949669;29;20393;-77
2022/11/05 00:38:21;;;;;;;6.88;5.55;;;6.10;99.90;;;;;;4949732;29;20052;-76
2022/11/05 00:40:47;;;;;;;5.68;5.03;;;6.20;99.90;;;;;;4949592;29;20036;-77
2022/11/05 00:45:58;;;;;;;6.60;5.95;;;6.10;99.90;;;;;;4949375;29;20032;-77
2022/11/05 00:51:08;;;;;;;6.55;4.75;;;6.00;99.90;;;;;;4949611;29;20040;-76
2022/11/05 00:53:34;;;;;;;8.95;8.10;;;6.00;99.90;;;;;;4949415;29;20031;-76
2022/11/05 00:56:00;;;;;;;9.40;6.90;;;6.00;99.90;;;;;;4949309;29;20031;-77
2022/11/05 00:58:28;;;;;;;9.20;8.20;;;6.00;99.90;;;;;;4947056;29;20039;-77
2022/11/05 01:00:56;;;;;;;8.85;7.53;;;6.00;99.90;;;;;;4949239;29;20036;-77
2022/11/05 01:03:27;;;;;;;8.70;7.88;;;5.90;99.90;;;;;;4949236;29;20055;-77
2022/11/05 01:05:59;;;;;;;8.43;7.28;;;6.00;99.90;;;;;;4932365;29;20131;-77
2022/11/05 01:08:26;;;;;;;8.85;7.85;;;5.90;99.90;;;;;;4949055;29;20164;-77
2022/11/05 01:10:55;;;;;;;8.75;7.90;;;5.80;99.90;;;;;;4949023;29;20061;-76
2022/11/05 01:13:24;;;;;;;10.43;7.90;;;5.90;99.90;;;;;;4948785;29;20031;-77
2022/11/05 01:15:51;;;;;;;8.95;8.18;;;5.90;99.90;;;;;;4932025;29;20393;-77
2022/11/05 01:18:18;;;;;;;9.90;8.35;;;5.90;99.90;;;;;;4949020;29;20105;-76
2022/11/05 01:20:44;;;;;;;13.38;9.07;;;5.80;99.90;;;;;;4931747;29;20039;-77
2022/11/05 01:23:10;;;;;;;8.52;7.32;;;5.80;99.90;;;;;;4949057;29;20099;-76
2022/11/05 01:25:37;;;;;;;9.25;8.13;;;5.80;99.90;;;;;;4948912;29;20485;-76
2022/11/05 01:28:03;;;;;;;8.80;7.90;;;5.70;99.90;;;;;;4948665;29;20103;-76
2022/11/05 01:30:30;;;;;;;10.15;8.57;;;5.80;99.90;;;;;;4931664;29;20028;-76
2022/11/05 01:32:55;;;;;;;9.23;8.23;;;5.80;99.90;;;;;;4931596;29;20101;-76
2022/11/05 01:35:21;;;;;;;10.88;9.77;;;5.80;99.90;;;;;;4948683;29;20027;-76
2022/11/05 01:37:47;;;;;;;12.63;9.57;;;5.70;99.90;;;;;;4948827;29;20541;-76
2022/11/05 01:40:18;;;;;;;18.23;11.38;;;5.70;99.90;;;;;;4948209;29;20059;-76
2022/11/05 01:42:44;;;;;;;16.50;12.60;;;5.70;99.90;;;;;;4948791;29;20090;-76
2022/11/05 01:45:25;;;;;;;15.90;11.13;;;5.70;99.90;;;;;;4915266;29;20469;-77
2022/11/05 01:48:05;;;;;;;13.70;10.85;;;5.70;99.90;;;;;;4931473;29;20035;-77
2022/11/05 01:50:49;;;;;;;14.25;12.18;;;5.60;99.90;;;;;;4948493;29;20036;-77
2022/11/05 01:53:33;;;;;;;16.38;14.30;;;5.60;99.90;;;;;;4948690;29;20028;-76
2022/11/05 01:56:13;;;;;;;15.82;14.10;;;5.60;99.90;;;;;;4931209;29;20043;-77
2022/11/05 01:58:47;;;;;;;16.52;14.43;;;5.60;99.90;;;;;;4948551;29;20108;-77
2022/11/05 02:01:13;;;;;;;20.85;16.27;;;5.50;99.90;;;;;;4929231;29;20044;-77
2022/11/05 02:03:40;;;;;;;23.13;16.08;;;5.50;99.90;;;;;;4929561;29;20060;-77
2022/11/05 02:06:08;;;;;;;22.58;19.25;;;5.60;99.90;;;;;;4929332;29;20394;-77
2022/11/05 02:08:38;;;;;;;18.38;16.52;;;5.50;99.90;;;;;;4929290;29;20032;-77
2022/11/05 02:11:04;;;;;;;20.20;17.77;;;5.50;99.90;;;;;;4929266;29;20053;-78
2022/11/05 02:13:30;;;;;;;24.42;17.92;;;5.40;99.90;;;;;;4929511;29;20360;-77
2022/11/05 02:16:19;;;;;;;20.70;18.58;;;5.50;99.90;;;;;;4947922;29;20039;-77
2022/11/05 02:19:03;;;;;;;21.25;15.40;;;5.40;99.90;;;;;;4948275;29;20027;-77
2022/11/05 02:21:45;;;;;;;28.70;18.48;;;5.40;99.90;;;;;;4948088;29;20032;-76
2022/11/05 02:24:31;;;;;;;18.50;15.50;;;5.30;99.90;;;;;;4931106;29;20065;-76
2022/11/05 02:27:08;;;;;;;17.23;14.82;;;5.30;99.90;;;;;;4948166;29;20075;-76
2022/11/05 02:29:34;;;;;;;17.40;15.55;;;5.30;99.90;;;;;;4931135;29;20062;-76
2022/11/05 02:32:09;;;;;;;19.63;17.15;;;5.20;99.90;;;;;;4947764;29;20027;-76
2022/11/05 02:34:54;;;;;;;23.60;18.17;;;5.10;99.90;;;;;;4948097;29;20031;-76
2022/11/05 02:37:32;;;;;;;20.30;16.38;;;5.10;99.90;;;;;;4948282;29;20035;-76
2022/11/05 02:40:35;;;;;;;35.47;19.73;;;5.10;99.90;;;;;;4947834;29;20067;-76
2022/11/05 02:43:18;;;;;;;21.25;18.95;;;5.10;99.90;;;;;;4931692;29;20127;-75
2022/11/05 02:45:56;;;;;;;26.13;19.48;;;5.10;99.90;;;;;;4947922;29;20071;-75
2022/11/05 02:48:28;;;;;;;25.50;17.83;;;5.10;99.90;;;;;;4947882;29;20044;-76
2022/11/05 02:51:12;;;;;;;18.73;16.73;;;5.10;99.90;;;;;;4947953;29;20051;-75
2022/11/05 02:54:04;;;;;;;19.20;15.73;;;5.00;99.90;;;;;;4946848;29;20106;-75
2022/11/05 02:56:34;;;;;;;23.70;16.25;;;5.00;99.90;;;;;;4948890;29;20043;-75
2022/11/05 02:59:00;;;;;;;23.70;18.02;;;5.00;99.90;;;;;;4951611;29;20071;-76
2022/11/05 03:01:26;;;;;;;17.38;15.43;;;5.00;99.90;;;;;;4915713;29;20062;-76
2022/11/05 03:03:56;;;;;;;19.00;16.98;;;5.00;99.90;;;;;;4932574;29;20084;-76
2022/11/05 03:06:21;;;;;;;;;;;5.00;99.90;;;;;;4932843;29;20067;-76
2022/11/05 03:09:09;;;;;;;21.17;18.80;;;4.90;99.90;;;;;;4915376;29;19930;-75
2022/11/05 03:12:06;;;;;;;20.08;18.00;;;5.00;99.90;;;;;;4899378;29;20481;-76
2022/11/05 03:14:44;;;;;;;19.85;17.13;;;5.00;99.90;;;;;;4937241;29;20042;-76
2022/11/05 03:17:36;;;;;;;19.50;17.30;;;4.90;99.90;;;;;;4951155;29;20056;-76
2022/11/05 03:20:14;;;;;;;21.60;17.83;;;4.90;99.90;;;;;;4921688;29;20067;-76
2022/11/05 03:22:52;;;;;;;19.23;16.25;;;4.90;99.90;;;;;;4933951;29;20067;-76
2022/11/05 03:25:23;;;;;;;21.77;19.52;;;5.00;99.90;;;;;;4951225;29;20051;-76
2022/11/05 03:27:54;;;;;;;21.10;17.73;;;4.90;99.90;;;;;;4951087;29;20040;-76
2022/11/05 03:30:21;;;;;;;18.48;16.58;;;5.00;99.90;;;;;;4933675;29;20039;-75
2022/11/05 03:33:12;;;;;;;19.23;15.73;;;5.00;99.90;;;;;;4950706;29;20059;-76
2022/11/05 03:35:51;;;;;;;16.35;14.45;;;4.90;99.90;;;;;;4951054;29;20043;-76
2022/11/05 03:38:24;;;;;;;19.83;17.30;;;4.90;99.90;;;;;;4950723;29;20050;-76
2022/11/05 03:40:55;;;;;;;18.77;13.48;;;4.80;99.90;;;;;;4950720;29;20055;-76
2022/11/05 03:43:26;;;;;;;16.70;15.00;;;4.80;99.90;;;;;;4950768;29;20098;-76
2022/11/05 03:45:57;;;;;;;21.30;16.27;;;4.80;99.90;;;;;;4931612;29;20064;-76
2022/11/05 03:48:26;;;;;;;25.23;16.33;;;4.80;99.90;;;;;;4938996;29;20043;-75
2022/11/05 03:51:11;;;;;;;18.60;16.65;;;4.80;99.90;;;;;;4950686;29;20030;-76
2022/11/05 03:53:54;;;;;;;19.73;16.63;;;4.80;99.90;;;;;;4950775;29;20031;-76
2022/11/05 03:56:28;;;;;;;21.65;17.45;;;4.80;99.90;;;;;;4949390;29;20028;-76
2022/11/05 03:58:55;;;;;;;20.55;17.83;;;4.70;99.90;;;;;;4945837;29;20036;-76
2022/11/05 04:01:22;;;;;;;25.25;17.98;;;4.80;99.90;;;;;;4950213;29;20047;-75
2022/11/05 04:03:47;;;;;;;20.20;17.90;;;4.80;99.90;;;;;;4950475;29;20036;-76
2022/11/05 04:14:28;;;;;;;25.42;21.25;;;4.70;99.90;;;;;;4950178;29;20027;-76
2022/11/05 04:17:06;;;;;;;20.30;18.45;;;4.70;99.90;;;;;;4950125;29;20115;-76
2022/11/05 04:25:07;;;;;;;22.85;17.60;;;4.70;99.90;;;;;;4949730;29;20044;-75
2022/11/05 04:27:34;;;;;;;19.23;17.30;;;4.70;99.90;;;;;;4949942;29;20437;-75
2022/11/05 04:30:17;;;;;;;19.42;17.45;;;4.70;99.90;;;;;;4949862;29;20042;-76
2022/11/05 04:33:14;;;;;;;18.63;16.08;;;4.70;99.90;;;;;;4919354;29;20042;-75
2022/11/05 04:35:49;;;;;;;21.20;17.27;;;4.60;99.90;;;;;;4934288;29;20135;-75
2022/11/05 04:38:18;;;;;;;20.13;17.98;;;4.40;99.90;;;;;;4949491;29;20043;-75
2022/11/05 04:40:45;;;;;;;21.42;19.17;;;4.50;99.90;;;;;;4949369;29;20032;-76
2022/11/05 04:43:13;;;;;;;22.95;20.30;;;4.50;99.90;;;;;;4949442;29;20035;-76
2022/11/05 04:45:40;;;;;;;20.77;16.13;;;4.50;99.90;;;;;;4932759;29;20035;-75
2022/11/05 04:48:07;;;;;;;25.98;20.60;;;4.40;99.90;;;;;;4949279;29;20031;-76
2022/11/05 04:50:33;;;;;;;22.42;17.85;;;4.40;99.90;;;;;;4949428;29;20105;-77
2022/11/05 04:52:59;;;;;;;31.25;19.67;;;4.40;99.90;;;;;;4949589;29;20031;-75
2022/11/05 04:55:26;;;;;;;29.70;23.05;;;4.40;99.90;;;;;;4948224;29;20107;-75
2022/11/05 04:57:53;;;;;;;19.73;17.73;;;4.40;99.90;;;;;;4949349;29;20039;-76
2022/11/05 05:00:20;;;;;;;20.15;18.00;;;4.30;99.90;;;;;;4949377;29;20059;-76
2022/11/05 05:02:47;;;;;;;23.80;18.10;;;4.30;99.90;;;;;;4932202;29;20434;-76
2022/11/05 05:05:13;;;;;;;21.83;16.98;;;4.30;99.90;;;;;;4949156;29;20035;-75
2022/11/05 05:07:40;;;;;;;18.73;16.88;;;4.30;99.90;;;;;;4916475;29;20036;-76
2022/11/05 05:10:07;;;;;;;20.95;17.63;;;4.30;99.90;;;;;;4948837;29;20044;-75
2022/11/05 05:12:33;;;;;;;26.30;16.58;;;4.30;99.90;;;;;;4931901;29;20028;-76
2022/11/05 05:14:59;;;;;;;21.20;19.13;;;4.20;99.90;;;;;;4916448;29;20127;-75
2022/11/05 05:17:25;;;;;;;26.40;20.15;;;4.10;99.90;;;;;;4948845;29;20047;-76
2022/11/05 05:22:43;;;;;;;21.83;19.05;;;4.10;99.90;;;;;;4912378;29;20107;-75
2022/11/05 05:25:09;;;;;;;23.85;17.90;;;4.10;99.90;;;;;;4948546;29;20055;-76
2022/11/05 05:27:34;;;;;;;29.08;22.23;;;4.10;99.90;;;;;;4949137;29;20032;-76
2022/11/05 05:30:00;;;;;;;21.08;17.88;;;4.00;99.90;;;;;;4949528;29;20096;-76
2022/11/05 05:32:26;;;;;;;23.92;19.83;;;4.00;99.90;;;;;;4932115;29;20035;-75
2022/11/05 05:34:53;;;;;;;25.80;19.35;;;4.00;99.90;;;;;;4932187;29;20036;-76
2022/11/05 05:37:19;;;;;;;29.70;23.23;;;4.00;99.90;;;;;;4933100;29;20028;-76
2022/11/05 05:39:46;;;;;;;27.33;22.38;;;4.00;99.90;;;;;;4949421;29;20047;-76
2022/11/05 05:42:12;;;;;;;30.15;23.83;;;4.00;99.90;;;;;;4957028;29;20062;-76
2022/11/05 05:44:38;;;;;;;27.58;21.90;;;4.00;99.90;;;;;;4928487;29;20020;-75
2022/11/05 05:47:05;;;;;;;29.83;20.52;;;4.00;99.90;;;;;;4918389;29;20520;-76
2022/11/05 05:49:31;;;;;;;25.90;23.05;;;4.10;99.90;;;;;;4932269;29;20028;-76
2022/11/05 05:51:57;;;;;;;32.05;22.20;;;4.10;99.90;;;;;;4931840;29;20051;-77
2022/11/05 05:54:22;;;;;;;24.63;21.98;;;4.10;99.90;;;;;;4924827;29;20104;-76
2022/11/05 05:56:48;;;;;;;21.33;19.08;;;4.10;99.90;;;;;;4948886;29;20051;-76
2022/11/05 05:59:14;;;;;;;22.45;19.15;;;4.10;99.90;;;;;;4926857;29;20039;-76
2022/11/05 06:01:40;;;;;;;27.48;20.95;;;4.10;99.90;;;;;;4935819;29;20495;-76
2022/11/05 06:04:09;;;;;;;18.52;16.63;;;4.00;99.90;;;;;;4935422;29;20035;-76
2022/11/05 06:06:34;;;;;;;21.73;18.08;;;4.00;99.90;;;;;;4951240;29;20031;-75
2022/11/05 06:09:04;;;;;;;22.63;18.55;;;3.90;99.90;;;;;;4919011;29;20035;-76
2022/11/05 06:11:30;;;;;;;20.52;18.15;;;4.40;99.90;;;;;;4918512;29;20028;-76
2022/11/05 06:13:56;;;;;;;22.25;19.60;;;3.90;99.90;;;;;;4916397;29;20022;-77
2022/11/05 06:16:23;;;;;;;20.98;17.55;;;3.90;99.90;;;;;;4928139;29;20031;-75
2022/11/05 06:18:48;;;;;;;22.92;18.08;;;3.90;99.90;;;;;;4931208;29;20036;-76
2022/11/05 06:21:16;;;;;;;17.98;16.20;;;3.90;99.90;;;;;;4937486;29;20044;-76
2022/11/05 06:23:44;;;;;;;18.75;16.92;;;3.90;99.90;;;;;;4928880;29;20039;-76
2022/11/05 06:26:12;;;;;;;15.90;14.15;;;3.80;99.90;;;;;;4949248;29;20035;-76
2022/11/05 06:28:39;;;;;;;19.08;17.38;;;3.80;99.90;;;;;;4930273;29;20040;-76
2022/11/05 06:31:05;;;;;;;23.48;18.05;;;3.90;99.90;;;;;;4918286;29;20028;-75
2022/11/05 06:33:30;;;;;;;17.75;15.35;;;3.90;99.90;;;;;;4902451;29;20036;-77
2022/11/05 06:36:01;;;;;;;27.92;16.42;;;3.80;99.90;;;;;;4935139;29;20083;-76
2022/11/05 06:38:30;;;;;;;19.05;16.60;;;3.80;99.90;;;;;;4952608;29;20054;-76
2022/11/05 06:41:00;;;;;;;27.67;17.40;;;3.80;99.90;;;;;;4951464;29;20032;-75
2022/11/05 06:43:26;;;;;;;16.38;14.48;;;3.90;99.90;;;;;;4952867;29;20059;-76
2022/11/05 06:45:52;;;;;;;17.17;15.40;;;3.90;99.90;;;;;;4935251;29;20051;-75
2022/11/05 06:48:18;;;;;;;17.25;15.68;;;3.90;99.90;;;;;;4917528;29;20039;-75
2022/11/05 06:50:44;;;;;;;18.33;16.42;;;3.90;99.90;;;;;;4964668;29;20036;-76
2022/11/05 06:53:10;;;;;;;20.25;16.33;;;3.90;99.90;;;;;;4945217;29;20031;-76
2022/11/05 06:55:37;;;;;;;17.83;14.20;;;4.00;99.90;;;;;;4971792;29;20035;-76
2022/11/05 06:58:03;;;;;;;16.60;13.63;;;4.00;99.90;;;;;;4945416;29;20032;-75
2022/11/05 07:00:29;;;;;;;16.52;14.85;;;4.00;99.90;;;;;;4952746;29;20036;-76
2022/11/05 07:02:55;;;;;;;14.00;12.18;;;4.00;99.90;;;;;;4935322;29;20042;-75
2022/11/05 07:05:22;;;;;;;17.20;13.65;;;4.10;99.90;;;;;;4952584;29;20031;-75
2022/11/05 07:07:48;;;;;;;18.70;14.27;;;4.10;99.90;;;;;;4934987;29;20047;-76
2022/11/05 07:10:16;;;;;;;16.42;14.82;;;4.20;99.90;;;;;;4951024;29;20056;-75
2022/11/05 07:12:42;;;;;;;16.02;13.93;;;4.30;99.90;;;;;;4950909;29;20036;-76
2022/11/05 07:15:10;;;;;;;24.90;17.10;;;4.50;99.90;;;;;;4933731;29;20114;-76
2022/11/05 07:17:36;;;;;;;16.25;14.73;;;4.50;99.90;;;;;;4950800;29;20044;-76
2022/11/05 07:20:03;;;;;;;17.50;14.93;;;4.50;99.90;;;;;;4950846;29;20036;-75
2022/11/05 07:22:29;;;;;;;17.75;15.23;;;4.60;99.90;;;;;;4933645;29;20035;-76
2022/11/05 07:24:55;;;;;;;21.27;13.23;;;4.60;99.90;;;;;;4950101;29;20035;-76
2022/11/05 07:27:21;;;;;;;15.90;14.30;;;4.70;99.90;;;;;;4950524;29;20036;-76
2022/11/05 07:29:46;;;;;;;23.48;20.20;;;4.90;99.90;;;;;;4950213;29;20043;-76
2022/11/05 07:32:12;;;;;;;21.02;19.00;;;5.40;99.90;;;;;;4933637;29;20030;-75
2022/11/05 07:34:39;;;;;;;20.63;17.58;;;5.90;99.90;;;;;;4950559;29;20028;-77
2022/11/05 07:37:05;;;;;;;15.20;11.15;;;6.20;99.90;;;;;;4917771;29;20055;-77
2022/11/05 07:39:31;;;;;;;12.13;10.93;;;6.30;99.90;;;;;;4949980;29;20071;-77
2022/11/05 07:41:56;;;;;;;15.15;12.02;;;6.60;99.90;;;;;;4949514;29;20028;-76
2022/11/05 07:44:30;;;;;;;18.27;12.10;;;6.80;99.90;;;;;;4932898;29;20062;-76
2022/11/05 07:46:56;;;;;;;18.35;11.25;;;7.00;99.90;;;;;;4950017;29;20055;-76
2022/11/05 07:49:22;;;;;;;13.00;10.48;;;7.70;99.90;;;;;;4916950;29;20015;-76
2022/11/05 07:51:48;;;;;;;9.93;8.90;;;9.50;99.90;;;;;;4950305;29;20089;-77
2022/11/05 07:54:14;;;;;;;10.90;9.70;;;11.80;99.90;;;;;;4933009;29;20072;-77
2022/11/05 07:56:39;;;;;;;9.52;5.75;;;13.50;99.90;;;;;;4950017;29;20051;-77
2022/11/05 07:59:05;;;;;;;4.78;4.30;;;14.80;99.90;;;;;;4950136;29;20038;-76
2022/11/05 08:01:31;;;;;;;4.28;3.88;;;15.60;99.90;;;;;;4932899;29;20042;-77
2022/11/05 08:03:57;;;;;;;5.15;4.75;;;16.30;99.90;;;;;;4949757;29;20466;-76
2022/11/05 08:06:23;;;;;;;3.35;3.05;;;15.80;99.90;;;;;;4932841;29;20054;-77
2022/11/05 08:08:49;;;;;;;4.45;4.05;;;15.50;99.90;;;;;;4949338;29;20028;-76
2022/11/05 08:11:14;;;;;;;5.20;3.83;;;16.70;99.90;;;;;;4949791;29;20123;-77
2022/11/05 08:13:41;;;;;;;4.38;3.97;;;17.70;99.90;;;;;;4949264;29;20028;-76
2022/11/05 08:16:09;;;;;;;9.82;5.13;;;18.60;99.90;;;;;;4949841;29;20039;-76
2022/11/05 08:18:35;;;;;;;5.70;5.18;;;19.20;99.90;;;;;;4932480;29;20095;-75
2022/11/05 08:21:03;;;;;;;9.63;5.75;;;19.50;99.90;;;;;;4949958;29;20028;-77
2022/11/05 08:23:30;;;;;;;6.50;3.72;;;20.70;99.40;;;;;;4949510;29;20504;-73
2022/11/05 08:25:56;;;;;;;6.50;4.85;;;20.80;98.30;;;;;;4932413;29;20081;-74
2022/11/05 08:28:24;;;;;;;5.70;4.32;;;21.20;97.80;;;;;;4949237;29;20086;-74
2022/11/05 08:30:52;;;;;;;12.32;5.18;;;21.80;97.20;;;;;;4932615;29;20880;-76
2022/11/05 08:33:19;;;;;;;6.82;5.03;;;21.90;96.50;;;;;;4949526;29;20031;-74
2022/11/05 08:35:46;;;;;;;4.63;4.18;;;22.10;96.40;;;;;;4949666;29;20366;-77
2022/11/05 08:38:14;;;;;;;11.18;5.85;;;22.80;97.70;;;;;;4932164;29;20125;-74
2022/11/05 08:40:41;;;;;;;8.25;4.53;;;22.90;95.50;;;;;;4949094;29;20040;-76
2022/11/05 08:43:09;;;;;;;8.13;4.78;;;22.80;95.30;;;;;;4932023;29;20046;-76
2022/11/05 08:45:36;;;;;;;7.97;6.07;;;22.70;95.70;;;;;;4931831;29;20086;-76
2022/11/05 08:48:04;;;;;;;5.53;4.38;;;22.90;95.00;;;;;;4949458;29;20571;-75
2022/11/05 08:50:30;;;;;;;7.68;5.07;;;23.40;94.40;;;;;;4949326;29;20043;-76
2022/11/05 08:52:56;;;;;;;5.35;4.47;;;23.30;94.60;;;;;;4931899;29;20413;-76
2022/11/05 08:55:22;;;;;;;6.80;4.43;;;22.90;94.70;;;;;;4948346;29;20023;-76
2022/11/05 08:57:55;;;;;;;10.25;6.13;;;23.30;94.50;;;;;;4948674;29;20115;-76
2022/11/05 09:00:20;;;;;;;6.93;5.35;;;23.10;94.40;;;;;;4949240;29;20058;-76
2022/11/05 09:02:46;;;;;;;6.82;5.65;;;23.00;94.90;;;;;;4931749;29;20095;-75
2022/11/05 09:05:12;;;;;;;6.05;4.95;;;22.50;94.80;;;;;;4948882;29;20036;-75
2022/11/05 09:07:38;;;;;;;10.70;5.68;;;22.50;94.90;;;;;;4948737;29;20035;-76
2022/11/05 09:10:04;;;;;;;9.95;5.28;;;23.00;94.80;;;;;;4931438;29;20127;-75
2022/11/05 09:12:29;;;;;;;7.28;6.25;;;23.70;94.30;;;;;;4948757;29;20091;-75
2022/11/05 09:14:55;;;;;;;6.70;5.18;;;24.00;93.90;;;;;;4931235;29;20028;-76
2022/11/05 09:17:21;;;;;;;13.70;5.95;;;24.90;93.60;;;;;;4931906;29;20036;-76
2022/11/05 09:19:47;;;;;;;8.18;4.40;;;24.90;93.10;;;;;;4948660;29;20031;-76
2022/11/05 09:22:13;;;;;;;6.75;4.72;;;24.70;93.60;;;;;;4931570;29;20560;-76
2022/11/05 09:24:42;;;;;;;7.50;5.05;;;24.50;93.00;;;;;;4915456;29;20035;-75
2022/11/05 09:27:13;;;;;;;9.00;5.82;;;24.00;93.70;;;;;;4948241;29;20092;-76
2022/11/05 09:29:40;;;;;;;7.07;4.65;;;24.00;93.30;;;;;;4948411;29;20028;-75
2022/11/05 09:32:06;;;;;;;6.25;5.22;;;23.50;93.90;;;;;;4931126;29;20206;-75
2022/11/05 09:34:33;;;;;;;11.93;5.63;;;22.60;94.70;;;;;;4931439;29;20441;-75
2022/11/05 09:36:59;;;;;;;8.48;6.00;;;21.90;94.80;;;;;;4948161;29;20035;-76
2022/11/05 09:39:25;;;;;;;6.30;5.22;;;21.00;96.50;;;;;;4947908;29;20067;-75
2022/11/05 09:41:55;;;;;;;11.27;4.47;;;22.20;94.90;;;;;;4931112;29;20043;-75
2022/11/05 09:44:24;;;;;;;4.90;4.28;;;22.30;95.50;;;;;;4930978;29;20027;-76
2022/11/05 09:46:54;;;;;;;5.75;5.25;;;22.70;94.80;;;;;;4947929;29;20064;-76
2022/11/05 09:49:29;;;;;;;7.30;5.22;;;23.10;94.40;;;;;;4947946;29;20031;-75
2022/11/05 09:51:57;;;;;;;5.43;4.65;;;23.50;94.30;;;;;;4948379;29;20099;-75
2022/11/05 09:54:27;;;;;;;7.55;4.38;;;23.80;94.40;;;;;;4947765;29;20031;-75
2022/11/05 09:56:54;;;;;;;9.32;4.13;;;23.00;94.10;;;;;;4930567;29;20079;-75
2022/11/05 09:59:47;;;;;;;7.32;4.88;;;21.20;96.80;;;;;;4948178;29;20039;-75
2022/11/05 10:02:21;;;;;;;5.45;4.93;;;22.30;95.30;;;;;;4922891;29;20137;-75
2022/11/05 10:04:51;;;;;;;5.22;4.45;;;23.00;94.90;;;;;;4930492;29;20028;-76
2022/11/05 10:07:21;;;;;;;7.70;5.35;;;23.70;93.90;;;;;;4931134;29;20062;-76
2022/11/05 10:09:54;;;;;;;6.00;4.93;;;23.40;94.80;;;;;;4947723;29;20032;-75
2022/11/05 10:12:42;;;;;;;6.00;5.22;;;20.90;96.40;;;;;;4947617;29;20032;-75
2022/11/05 10:15:23;;;;;;;6.10;3.63;;;18.90;98.20;;;;;;4930852;29;20032;-75
2022/11/05 10:17:55;;;;;;;11.00;4.68;;;17.50;99.90;;;;;;4930514;29;20032;-75
2022/11/05 10:20:34;;;;;;;6.57;5.00;;;16.30;99.90;;;;;;4947773;29;20036;-75
2022/11/05 10:23:15;;;;;;;7.85;5.13;;;15.60;99.90;;;;;;4948331;29;20027;-75
2022/11/05 10:25:45;;;;;;;7.20;6.22;;;15.10;99.90;;;;;;4930850;29;20055;-75
2022/11/05 10:28:16;;;;;;;10.30;5.05;;;14.50;99.90;;;;;;4947456;29;20040;-74
2022/11/05 10:30:45;;;;;;;9.77;4.60;;;14.30;99.90;;;;;;4930483;29;20043;-75
2022/11/05 10:33:15;;;;;;;6.82;4.47;;;14.20;99.90;;;;;;4930997;29;20489;-75
2022/11/05 10:35:51;;;;;;;7.40;4.97;;;13.90;99.90;;;;;;4930580;29;20031;-75
2022/11/05 10:38:17;;;;;;;7.38;5.63;;;13.70;99.90;;;;;;4930454;29;20037;-75
2022/11/05 10:40:51;;;;;;;13.20;5.45;;;13.60;99.90;;;;;;4947344;29;20051;-75
2022/11/05 10:43:29;;;;;;;10.15;5.40;;;13.50;99.90;;;;;;4948077;29;20039;-75
2022/11/05 10:46:14;;;;;;;14.43;5.97;;;13.40;99.90;;;;;;4947592;29;20036;-75
2022/11/05 10:49:04;;;;;;;5.13;4.63;;;13.30;99.90;;;;;;4930434;29;20401;-75
2022/11/05 10:51:30;;;;;;;;;;;13.10;99.90;;;;;;4948044;29;20095;-74
2022/11/05 10:54:01;;;;;;;6.18;4.10;;;13.20;99.90;;;;;;4947799;29;19911;-75
2022/11/05 10:56:37;;;;;;;9.93;4.60;;;13.00;99.90;;;;;;4947980;29;20159;-75
2022/11/05 10:59:17;;;;;;;5.45;4.10;;;12.90;99.90;;;;;;4930695;29;20034;-74
2022/11/05 11:01:43;;;;;;;;;;;12.90;99.90;;;;;;4915133;29;20035;-75
2022/11/05 11:04:27;;;;;;;5.18;4.68;;;12.80;99.90;;;;;;4947683;29;19926;-75
2022/11/05 11:06:55;;;;;;;7.55;4.38;;;12.80;99.90;;;;;;4947493;29;20035;-75
2022/11/05 11:09:30;;;;;;;5.72;5.05;;;12.70;99.90;;;;;;4930409;29;20456;-75
2022/11/05 11:12:11;;;;;;;6.57;4.35;;;12.60;99.90;;;;;;4930228;29;20035;-75
2022/11/05 11:14:37;;;;;;;10.68;5.05;;;12.70;99.90;;;;;;4947764;29;20043;-75
2022/11/05 11:17:25;;;;;;;8.63;6.22;;;12.70;99.90;;;;;;4947958;29;20040;-75
2022/11/05 11:19:52;;;;;;;9.23;5.43;;;12.80;99.90;;;;;;4933436;29;20024;-74
2022/11/05 11:22:20;;;;;;;12.48;10.05;;;12.70;99.90;;;;;;4950885;29;20043;-75
2022/11/05 11:24:49;;;;;;;7.75;4.72;;;12.80;99.90;;;;;;4918209;29;20430;-75
2022/11/05 11:27:21;;;;;;;7.75;6.07;;;12.80;99.90;;;;;;4933654;29;20091;-75
2022/11/05 11:29:51;;;;;;;5.75;4.90;;;13.00;99.90;;;;;;4933502;29;20035;-74
2022/11/05 11:32:19;;;;;;;9.07;4.80;;;12.90;99.90;;;;;;4933676;29;20042;-78
2022/11/05 11:34:50;;;;;;;8.32;4.70;;;12.70;99.90;;;;;;4950630;29;20083;-74
2022/11/05 11:37:15;;;;;;;;;;;13.00;99.90;;;;;;4934083;29;20051;-75
2022/11/05 11:39:55;;;;;;;8.75;3.80;;;13.30;99.90;;;;;;4950720;29;19926;-76
2022/11/05 11:42:31;;;;;;;4.95;3.60;;;13.50;99.90;;;;;;4933529;29;20035;-75
2022/11/05 11:45:02;;;;;;;10.75;4.45;;;13.40;99.90;;;;;;4950419;29;20078;-75
2022/11/05 11:47:29;;;;;;;4.28;3.92;;;13.50;99.90;;;;;;4949934;29;20038;-74
2022/11/05 11:49:57;;;;;;;4.40;3.45;;;13.50;99.90;;;;;;4932074;29;20063;-75
2022/11/05 11:52:31;;;;;;;6.00;3.78;;;13.20;99.90;;;;;;4949895;29;20063;-75
2022/11/05 11:55:12;;;;;;;7.55;3.60;;;13.30;99.90;;;;;;4947939;29;20028;-75
2022/11/05 11:57:49;;;;;;;4.97;3.00;;;13.90;99.90;;;;;;4948392;29;20032;-75
2022/11/05 12:00:17;;;;;;;3.67;3.33;;;14.40;99.90;;;;;;4933321;29;20035;-75
2022/11/05 12:03:01;;;;;;;5.15;3.80;;;14.60;99.90;;;;;;4949920;29;20039;-74
2022/11/05 12:05:46;;;;;;;4.15;3.25;;;14.60;99.90;;;;;;4949498;29;20036;-75
2022/11/05 12:08:33;;;;;;;4.57;3.38;;;14.60;99.90;;;;;;4947795;29;20434;-76
2022/11/05 12:11:03;;;;;;;7.32;4.25;;;15.00;99.90;;;;;;4932650;29;20055;-74
2022/11/05 12:13:32;;;;;;;;;;;15.30;99.90;;;;;;4931505;29;20032;-75
2022/11/05 12:16:10;;;;;;;6.97;3.03;;;15.60;99.90;;;;;;4946952;29;19962;-74
2022/11/05 12:19:08;;;;;;;7.43;2.35;;;15.70;99.90;;;;;;4949947;29;20111;-74
2022/11/05 12:22:04;;;;;;;4.03;2.63;;;15.70;99.90;;;;;;4950050;29;20034;-74
2022/11/05 12:25:09;;;;;;;6.13;3.08;;;15.40;99.90;;;;;;4949960;29;20042;-76
2022/11/05 12:27:38;;;;;;;3.80;2.20;;;15.30;99.90;;;;;;4932996;29;20082;-76
2022/11/05 12:30:10;;;;;;;2.95;2.63;;;15.50;99.90;;;;;;4932810;29;20039;-75
2022/11/05 12:33:00;;;;;;;4.50;3.25;;;15.00;99.90;;;;;;4949549;29;20032;-76
2022/11/05 12:35:48;;;;;;;6.43;2.90;;;14.90;99.90;;;;;;4948746;29;20051;-76
2022/11/05 12:38:52;;;;;;;2.78;2.13;;;14.80;99.90;;;;;;4949555;29;20038;-76
2022/11/05 12:41:37;;;;;;;2.45;1.60;;;14.40;99.90;;;;;;4916826;29;20118;-76
2022/11/05 12:44:24;;;;;;;2.03;1.20;;;14.30;99.90;;;;;;4932690;29;20046;-75
2022/11/05 12:47:15;;;;;;;3.60;2.35;;;14.10;99.90;;;;;;4949791;29;20031;-76
2022/11/05 12:49:50;;;;;;;;;;;14.10;99.90;;;;;;4949775;29;20032;-73
2022/11/05 12:52:26;;;;;;;7.50;2.80;;;13.90;99.90;;;;;;4932433;29;20014;-76
2022/11/05 12:55:09;;;;;;;3.08;2.78;;;13.60;99.90;;;;;;4932529;29;20031;-76
2022/11/05 12:57:40;;;;;;;3.78;2.70;;;13.40;99.90;;;;;;4939168;29;20044;-75
2022/11/05 13:00:21;;;;;;;4.68;3.53;;;13.40;99.90;;;;;;4949331;29;20388;-74
2022/11/05 13:03:01;;;;;;;8.00;5.72;;;13.40;99.90;;;;;;4948975;29;20046;-74
2022/11/05 13:05:53;;;;;;;6.57;4.60;;;13.50;99.90;;;;;;4949357;29;20042;-76
2022/11/05 13:08:25;;;;;;;4.68;2.40;;;13.40;99.90;;;;;;4932207;29;20036;-76
2022/11/05 13:11:18;;;;;;;3.42;2.28;;;13.40;99.90;;;;;;4949248;29;20066;-75
2022/11/05 13:14:17;;;;;;;4.32;2.55;;;13.40;99.90;;;;;;4932218;29;20032;-76
2022/11/05 13:16:50;;;;;;;3.97;2.92;;;13.30;99.90;;;;;;4932570;29;20370;-76
2022/11/05 13:19:44;;;;;;;5.10;2.78;;;13.20;99.90;;;;;;4931483;29;20389;-75
2022/11/05 13:22:28;;;;;;;5.20;3.55;;;13.20;99.90;;;;;;4949044;29;20380;-76
2022/11/05 13:25:04;;;;;;;4.88;2.28;;;13.00;99.90;;;;;;4948957;29;20028;-75
2022/11/05 13:28:28;;;;;;;2.33;2.22;;;13.00;99.90;;;;;;4948780;29;20032;-75
2022/11/05 13:30:58;;;;;;;3.30;2.42;;;13.10;99.90;;;;;;4874638;29;20037;-75
2022/11/05 13:33:37;;;;;;;2.88;1.73;;;13.10;99.90;;;;;;4937888;29;20047;-75
2022/11/05 13:39:05;;;;;;;;;;;13.30;99.90;;;;;;4948892;29;20059;-74
2022/11/05 13:42:09;;;;;;;2.58;1.85;;;13.30;99.90;;;;;;4931238;29;20360;-74
2022/11/05 13:44:37;;;;;;;4.50;2.85;;;13.30;99.90;;;;;;4948690;29;20055;-74
2022/11/05 13:47:15;;;;;;;2.22;2.03;;;13.20;99.90;;;;;;4948459;29;20032;-75
2022/11/05 13:50:20;;;;;;;6.32;2.53;;;13.20;99.90;;;;;;4948614;29;20028;-75
2022/11/05 13:53:23;;;;;;;6.63;2.45;;;13.00;99.90;;;;;;4947996;29;20067;-75